createdAt,value
2022-09-14T00:01:27.528Z,95211.25
2022-09-14T00:03:57.882Z,95214.75
2022-09-14T00:06:26.350Z,95221.53
2022-09-14T00:08:55.640Z,95199.09
2022-09-14T00:11:25.167Z,95227.91
2022-09-14T00:13:54.762Z,95235.06
2022-09-14T00:16:25.177Z,95237.53
2022-09-14T00:18:54.014Z,95235.16
2022-09-14T00:21:22.548Z,95246.94
2022-09-14T00:23:50.397Z,95245.13
2022-09-14T00:26:20.593Z,95234.28
2022-09-14T00:28:50.693Z,95241.78
2022-09-14T00:31:21.038Z,95255.19
2022-09-14T00:33:50.430Z,95253.19
2022-09-14T00:36:20.987Z,95242.88
2022-09-14T00:38:49.222Z,95174.13
2022-09-14T00:41:19.762Z,95222.44
2022-09-14T00:43:59.408Z,95221.03
2022-09-14T00:46:30.158Z,95210.84
2022-09-14T00:49:00.858Z,95217.78
2022-09-14T00:51:30.189Z,95161.03
2022-09-14T00:53:58.288Z,95223.22
2022-09-14T00:56:26.703Z,95196.91
2022-09-14T00:58:56.325Z,95189.69
2022-09-14T01:01:24.099Z,95199.59
2022-09-14T01:03:53.197Z,95178.84
2022-09-14T01:06:35.393Z,95182.78
2022-09-14T01:09:23.057Z,95182.78
2022-09-14T01:12:07.048Z,95160.41
2022-09-14T01:14:43.305Z,95180.56
2022-09-14T01:17:20.818Z,95168.00
2022-09-14T01:20:16.077Z,95151.22
2022-09-14T01:22:48.596Z,95112.00
2022-09-14T01:25:29.193Z,95143.16
2022-09-14T01:28:02.783Z,95160.09
2022-09-14T01:30:35.472Z,95065.06
2022-09-14T01:33:10.749Z,95135.47
2022-09-14T01:35:44.363Z,95120.28
2022-09-14T01:38:18.460Z,95070.13
2022-09-14T01:40:48.186Z,95125.50
2022-09-14T01:43:21.567Z,95138.06
2022-09-14T01:45:52.839Z,95041.81
2022-09-14T01:48:25.811Z,95117.56
2022-09-14T01:50:57.194Z,95022.28
2022-09-14T01:53:30.754Z,95118.00
2022-09-14T01:56:02.703Z,95113.34
2022-09-14T01:58:37.696Z,95104.28
2022-09-14T02:01:08.926Z,95128.94
2022-09-14T02:03:41.992Z,95103.81
2022-09-14T02:06:17.563Z,95126.53
2022-09-14T02:08:45.274Z,95141.00
2022-09-14T02:11:13.054Z,95132.63
2022-09-14T02:13:42.123Z,94988.84
2022-09-14T02:16:09.882Z,95094.72
2022-09-14T02:18:38.686Z,95132.53
2022-09-14T02:21:11.514Z,95055.47
2022-09-14T02:23:39.306Z,95142.03
2022-09-14T02:26:07.263Z,95112.97
2022-09-14T02:28:35.191Z,95135.66
2022-09-14T02:31:18.091Z,95132.53
2022-09-14T02:33:53.291Z,95110.03
2022-09-14T02:36:26.433Z,95137.47
2022-09-14T02:39:00.241Z,95132.81
2022-09-14T02:41:39.743Z,95026.81
2022-09-14T02:44:19.911Z,95101.88
2022-09-14T02:46:56.480Z,95117.59
2022-09-14T02:49:30.748Z,94990.81
2022-09-14T02:52:06.790Z,95101.25
2022-09-14T02:54:38.894Z,95093.75
2022-09-14T02:57:06.633Z,95091.88
2022-09-14T02:59:34.704Z,94987.47
2022-09-14T03:02:03.906Z,95081.44
2022-09-14T03:04:31.641Z,95066.00
2022-09-14T03:06:59.345Z,94906.16
2022-09-14T03:09:27.007Z,95078.34
2022-09-14T03:11:54.743Z,95007.75
2022-09-14T03:14:22.399Z,95058.16
2022-09-14T03:16:50.100Z,95062.22
2022-09-14T03:19:19.123Z,95048.09
2022-09-14T03:21:46.757Z,95054.13
2022-09-14T03:24:14.409Z,95078.03
2022-09-14T03:26:42.064Z,94963.47
2022-09-14T03:29:09.747Z,95071.84
2022-09-14T03:31:37.871Z,94957.97
2022-09-14T03:34:05.591Z,95066.09
2022-09-14T03:36:34.567Z,94910.28
2022-09-14T03:39:02.719Z,95065.47
2022-09-14T03:41:30.817Z,95047.34
2022-09-14T03:43:58.477Z,95035.50
2022-09-14T03:46:26.954Z,95040.00
2022-09-14T03:48:56.115Z,95031.47
2022-09-14T03:51:24.349Z,95045.16
2022-09-14T03:53:53.518Z,95041.09
2022-09-14T03:56:22.590Z,95033.53
2022-09-14T03:58:51.341Z,95047.97
2022-09-14T04:01:20.849Z,95048.25
2022-09-14T04:03:49.291Z,95054.72
2022-09-14T04:06:17.842Z,95045.41
2022-09-14T04:08:47.161Z,95054.72
2022-09-14T04:11:18.154Z,95073.72
2022-09-14T04:13:46.694Z,95078.22
2022-09-14T04:16:15.471Z,94952.59
2022-09-14T04:18:43.226Z,95077.50
2022-09-14T04:21:14.498Z,95023.31
2022-09-14T04:24:10.093Z,95082.84
2022-09-14T04:26:33.030Z,95087.56
2022-09-14T04:29:00.671Z,95087.16
2022-09-14T04:31:28.644Z,95090.56
2022-09-14T04:33:57.456Z,95087.56
2022-09-14T04:36:30.999Z,95074.94
2022-09-14T04:39:00.836Z,95087.22
2022-09-14T04:41:29.986Z,95073.81
2022-09-14T04:43:59.805Z,95052.09
2022-09-14T04:46:30.175Z,95043.34
2022-09-14T04:48:58.059Z,95037.94
2022-09-14T04:51:28.079Z,95058.81
2022-09-14T04:53:57.894Z,95047.28
2022-09-14T04:56:26.783Z,95056.91
2022-09-14T04:58:56.743Z,95053.50
2022-09-14T05:01:28.220Z,95050.38
2022-09-14T05:03:58.716Z,95049.53
2022-09-14T05:06:30.039Z,95057.34
2022-09-14T05:08:59.148Z,95056.06
2022-09-14T05:11:28.550Z,95044.47
2022-09-14T05:13:56.456Z,95069.91
2022-09-14T05:16:27.718Z,95062.34
2022-09-14T05:18:58.522Z,94989.38
2022-09-14T05:21:26.478Z,95048.63
2022-09-14T05:23:55.749Z,95052.88
2022-09-14T05:26:24.444Z,94985.22
2022-09-14T05:28:53.532Z,95034.38
2022-09-14T05:31:22.022Z,95055.97
2022-09-14T05:33:53.740Z,95045.28
2022-09-14T05:36:21.589Z,95046.41
2022-09-14T05:38:49.704Z,94989.94
2022-09-14T05:41:17.765Z,95058.34
2022-09-14T05:43:46.047Z,95045.00
2022-09-14T05:46:15.141Z,95036.59
2022-09-14T05:48:43.179Z,94928.81
2022-09-14T05:51:14.769Z,95041.69
2022-09-14T05:53:42.876Z,94953.91
2022-09-14T05:56:12.559Z,95029.47
2022-09-14T05:58:41.202Z,95030.16
2022-09-14T06:01:11.170Z,95038.59
2022-09-14T06:03:39.448Z,95050.41
2022-09-14T06:06:08.642Z,94909.94
2022-09-14T06:08:38.346Z,95042.88
2022-09-14T06:11:07.421Z,95045.19
2022-09-14T06:13:37.884Z,94913.81
2022-09-14T06:16:06.686Z,95053.41
2022-09-14T06:18:35.559Z,94920.22
2022-09-14T06:21:04.476Z,95044.78
2022-09-14T06:23:33.460Z,95012.66
2022-09-14T06:26:03.720Z,95045.47
2022-09-14T06:28:32.351Z,95058.00
2022-09-14T06:31:00.279Z,94954.50
2022-09-14T06:33:28.085Z,95052.41
2022-09-14T06:35:56.897Z,95074.19
2022-09-14T06:38:24.878Z,95056.06
2022-09-14T06:40:54.129Z,95035.53
2022-09-14T06:43:23.371Z,95002.84
2022-09-14T06:45:58.921Z,94975.72
2022-09-14T06:48:27.384Z,95058.94
2022-09-14T06:50:55.142Z,94901.56
2022-09-14T06:53:22.798Z,95001.34
2022-09-14T06:55:50.667Z,95040.94
2022-09-14T06:58:18.372Z,95035.59
2022-09-14T07:00:47.628Z,94987.97
2022-09-14T07:03:15.383Z,94948.81
2022-09-14T07:05:43.047Z,94888.91
2022-09-14T07:08:13.319Z,94889.88
2022-09-14T07:10:43.070Z,94918.72
2022-09-14T07:13:10.837Z,94956.50
2022-09-14T07:15:38.519Z,94927.78
2022-09-14T07:18:07.609Z,94993.16
2022-09-14T07:20:35.368Z,94938.38
2022-09-14T07:23:03.117Z,95044.84
2022-09-14T07:25:30.933Z,94949.72
2022-09-14T07:28:00.684Z,95069.78
2022-09-14T07:30:28.625Z,94986.81
2022-09-14T07:32:56.522Z,94889.72
2022-09-14T07:35:25.811Z,94993.84
2022-09-14T07:37:53.539Z,95040.09
2022-09-14T07:40:22.975Z,94997.47
2022-09-14T07:42:55.558Z,95054.72
2022-09-14T07:45:25.376Z,95055.28
2022-09-14T07:47:53.031Z,95059.38
2022-09-14T07:50:20.749Z,94967.72
2022-09-14T07:52:52.214Z,95059.53
2022-09-14T07:55:20.318Z,95059.19
2022-09-14T07:57:56.075Z,95023.41
2022-09-14T08:00:25.578Z,95026.59
2022-09-14T08:02:55.132Z,95066.81
2022-09-14T08:05:22.986Z,95004.72
2022-09-14T08:07:55.770Z,94942.28
2022-09-14T08:10:24.213Z,94967.75
2022-09-14T08:12:53.009Z,94966.97
2022-09-14T08:15:24.146Z,94962.78
2022-09-14T08:17:55.431Z,95087.84
2022-09-14T08:20:23.401Z,95084.38
2022-09-14T08:22:51.017Z,95077.00
2022-09-14T08:25:20.060Z,95056.81
2022-09-14T08:27:47.738Z,94938.13
2022-09-14T08:30:15.391Z,94982.06
2022-09-14T08:32:42.992Z,94996.88
2022-09-14T08:35:10.673Z,94992.16
2022-09-14T08:37:38.326Z,95021.56
2022-09-14T08:40:06.659Z,95049.34
2022-09-14T08:42:41.041Z,95081.34
2022-09-14T08:45:12.979Z,95083.28
2022-09-14T08:52:06.337Z,95094.56
2022-09-14T08:54:34.014Z,95071.88
2022-09-14T08:57:10.434Z,95045.75
2022-09-14T08:59:48.938Z,95095.47
2022-09-14T09:02:43.324Z,95108.16
2022-09-14T09:05:26.515Z,95077.00
2022-09-14T09:07:59.646Z,95104.75
2022-09-14T09:10:28.484Z,95105.13
2022-09-14T09:12:59.155Z,95115.53
2022-09-14T09:15:32.019Z,95011.66
2022-09-14T09:18:03.187Z,95038.56
2022-09-14T09:20:33.569Z,95104.41
2022-09-14T09:23:12.730Z,95011.31
2022-09-14T09:25:51.502Z,95129.09
2022-09-14T09:28:21.115Z,95051.75
2022-09-14T09:30:50.388Z,95091.44
2022-09-14T09:33:22.223Z,95125.28
2022-09-14T09:36:03.037Z,95072.22
2022-09-14T09:38:31.811Z,95099.13
2022-09-14T09:41:07.520Z,95116.84
2022-09-14T09:43:48.839Z,95127.63
2022-09-14T09:46:19.054Z,95089.91
2022-09-14T09:48:48.316Z,94996.06
2022-09-14T09:51:22.153Z,95108.38
2022-09-14T09:53:55.187Z,95135.69
2022-09-14T09:56:26.369Z,95090.28
2022-09-14T09:58:54.518Z,95117.63
2022-09-14T10:01:28.797Z,95024.16
2022-09-14T10:04:06.810Z,95094.91
2022-09-14T10:06:42.668Z,95085.31
2022-09-14T10:09:15.204Z,94985.75
2022-09-14T10:11:43.339Z,95084.91
2022-09-14T10:14:27.592Z,95088.00
2022-09-14T10:17:06.250Z,95081.84
2022-09-14T10:19:34.343Z,95088.34
2022-09-14T10:22:19.241Z,95082.56
2022-09-14T10:24:58.427Z,95087.16
2022-09-14T10:27:43.063Z,95069.03
2022-09-14T10:30:15.510Z,95071.72
2022-09-14T10:32:50.019Z,95075.19
2022-09-14T10:35:18.621Z,95081.34
2022-09-14T10:37:58.093Z,95057.50
2022-09-14T10:40:36.506Z,94966.03
2022-09-14T10:43:29.773Z,95049.84
2022-09-14T10:46:03.112Z,95044.03
2022-09-14T10:49:01.067Z,94934.59
2022-09-14T10:51:50.230Z,94955.72
2022-09-14T10:54:37.152Z,95032.94
2022-09-14T10:57:14.458Z,94997.19
2022-09-14T10:59:53.405Z,95031.72
2022-09-14T11:02:49.379Z,95025.09
2022-09-14T11:05:23.675Z,94939.38
2022-09-14T11:08:07.646Z,94943.53
2022-09-14T11:10:46.377Z,94930.41
2022-09-14T11:13:32.408Z,95029.72
2022-09-14T11:16:10.946Z,95005.53
2022-09-14T11:18:46.480Z,94931.34
2022-09-14T11:21:24.495Z,94999.94
2022-09-14T11:24:28.540Z,95020.28
2022-09-14T11:27:04.053Z,95005.38
2022-09-14T11:29:35.990Z,94991.59
2022-09-14T11:32:21.434Z,94931.31
2022-09-14T11:34:56.153Z,94971.63
2022-09-14T11:37:33.708Z,94989.94
2022-09-14T11:40:08.068Z,94998.84
2022-09-14T11:42:46.729Z,95006.19
2022-09-14T11:45:23.419Z,94993.09
2022-09-14T11:47:58.937Z,94887.28
2022-09-14T11:50:28.646Z,94844.72
2022-09-14T11:53:04.788Z,94967.66
2022-09-14T11:55:33.134Z,94939.34
2022-09-14T11:58:02.411Z,94913.97
2022-09-14T12:01:05.022Z,94962.94
2022-09-14T12:04:04.812Z,94959.50
2022-09-14T12:06:59.739Z,94957.13
2022-09-14T12:10:15.584Z,94955.59
2022-09-14T12:12:44.930Z,94960.22
2022-09-14T12:15:33.908Z,94955.31
2022-09-14T12:18:22.531Z,94938.38
2022-09-14T12:21:00.681Z,94957.63
2022-09-14T12:23:31.920Z,94950.72
2022-09-14T12:26:08.388Z,94945.66
2022-09-14T12:28:48.234Z,94952.91
2022-09-14T12:31:39.390Z,94959.19
2022-09-14T12:34:17.146Z,94970.78
2022-09-14T12:37:00.175Z,94970.00
2022-09-14T12:39:30.464Z,94973.13
2022-09-14T12:42:25.389Z,94970.81
2022-09-14T12:44:53.979Z,94963.88
2022-09-14T12:47:58.194Z,94962.31
2022-09-14T12:50:32.789Z,94961.88
2022-09-14T12:53:19.867Z,94970.00
2022-09-14T12:56:03.028Z,94981.19
2022-09-14T12:59:10.024Z,94985.09
2022-09-14T13:01:48.471Z,94966.22
2022-09-14T13:04:27.084Z,94948.28
2022-09-14T13:06:56.968Z,94971.34
2022-09-14T13:09:26.985Z,94964.50
2022-09-14T13:11:57.867Z,94948.34
2022-09-14T13:14:30.653Z,94958.00
2022-09-14T13:17:01.003Z,94944.13
2022-09-14T13:19:30.824Z,94951.41
2022-09-14T13:22:00.382Z,94945.25
2022-09-14T13:24:32.512Z,94939.56
2022-09-14T13:27:02.995Z,94938.47
2022-09-14T13:29:32.358Z,94936.88
2022-09-14T13:32:03.999Z,94935.72
2022-09-14T13:34:35.969Z,94932.66
2022-09-14T13:37:04.162Z,94925.72
2022-09-14T13:39:35.543Z,94905.03
2022-09-14T13:42:04.410Z,94892.69
2022-09-14T13:44:37.020Z,94894.22
2022-09-14T13:47:06.454Z,94901.13
2022-09-14T13:49:36.144Z,94909.53
2022-09-14T13:52:57.136Z,94914.56
2022-09-14T13:55:22.483Z,94898.50
2022-09-14T13:58:07.675Z,94914.28
2022-09-14T14:00:49.248Z,94915.09
2022-09-14T14:03:26.123Z,94883.25
2022-09-14T14:05:54.259Z,94913.16
2022-09-14T14:08:29.545Z,94916.66
2022-09-14T14:10:58.231Z,94925.97
2022-09-14T14:13:26.642Z,94930.19
2022-09-14T14:16:14.556Z,94915.56
2022-09-14T14:18:44.889Z,94916.75
2022-09-14T14:21:24.659Z,94922.56
2022-09-14T14:24:20.433Z,94922.56
2022-09-14T14:26:49.860Z,94920.25
2022-09-14T14:29:17.957Z,94921.84
2022-09-14T14:31:47.322Z,94919.09
2022-09-14T14:34:20.702Z,94909.91
2022-09-14T14:36:50.046Z,94906.84
2022-09-14T14:39:20.567Z,94908.75
2022-09-14T14:41:49.009Z,94915.66
2022-09-14T14:44:19.192Z,94922.56
2022-09-14T14:46:48.892Z,94934.50
2022-09-14T14:49:18.411Z,94936.03
2022-09-14T14:51:46.036Z,94927.19
2022-09-14T14:54:16.268Z,94919.88
2022-09-14T14:56:44.516Z,94921.47
2022-09-14T14:59:18.033Z,94904.91
2022-09-14T15:01:46.118Z,94917.56
2022-09-14T15:04:15.534Z,94916.84
2022-09-14T15:06:43.246Z,94885.41
2022-09-14T15:09:15.885Z,94936.50
2022-09-14T15:11:43.657Z,94948.75
2022-09-14T15:14:13.182Z,94939.22
2022-09-14T15:16:41.036Z,94971.50
2022-09-14T15:19:10.284Z,94966.50
2022-09-14T15:21:40.071Z,94960.38
2022-09-14T15:24:08.265Z,94985.31
2022-09-14T15:26:36.575Z,94980.69
2022-09-14T15:29:04.881Z,94979.88
2022-09-14T15:31:33.263Z,95000.16
2022-09-14T15:34:00.981Z,95002.84
2022-09-14T15:36:47.655Z,94987.34
2022-09-14T15:39:15.937Z,94990.41
2022-09-14T15:41:43.962Z,94966.44
2022-09-14T15:44:12.181Z,95012.47
2022-09-14T15:46:41.190Z,94994.59
2022-09-14T15:49:12.536Z,95028.75
2022-09-14T15:51:45.279Z,95054.00
2022-09-14T15:54:13.620Z,95054.03
2022-09-14T15:56:41.989Z,95032.22
2022-09-14T15:59:09.886Z,95052.88
2022-09-14T16:01:37.955Z,95050.16
2022-09-14T16:04:11.623Z,95039.34
2022-09-14T16:06:40.627Z,95012.94
2022-09-14T16:09:11.376Z,95014.53
2022-09-14T16:11:40.081Z,95014.94
2022-09-14T16:14:09.473Z,95023.72
2022-09-14T16:16:38.549Z,95012.59
2022-09-14T16:19:06.955Z,95013.94
2022-09-14T16:21:34.568Z,95007.13
2022-09-14T16:24:05.025Z,95018.56
2022-09-14T16:26:36.636Z,95010.00
2022-09-14T16:29:05.660Z,95008.03
2022-09-14T16:31:36.435Z,95002.41
2022-09-14T16:34:11.713Z,94989.41
2022-09-14T16:36:41.402Z,94993.41
2022-09-14T16:39:11.839Z,94983.31
2022-09-14T16:41:42.192Z,94985.66
2022-09-14T16:44:17.370Z,94985.25
2022-09-14T16:46:45.319Z,94952.84
2022-09-14T16:49:13.392Z,94984.31
2022-09-14T16:51:41.096Z,94959.09
2022-09-14T16:54:09.268Z,94963.41
2022-09-14T16:56:38.949Z,94965.19
2022-09-14T16:59:08.437Z,94898.03
2022-09-14T17:01:39.400Z,94955.69
2022-09-14T17:04:11.527Z,94965.56
2022-09-14T17:06:42.026Z,94973.91
2022-09-14T17:09:11.175Z,94978.81
2022-09-14T17:11:40.572Z,94970.41
2022-09-14T17:14:14.012Z,94973.41
2022-09-14T17:16:41.700Z,94966.97
2022-09-14T17:19:09.548Z,94967.50
2022-09-14T17:21:38.838Z,94968.09
2022-09-14T17:24:07.907Z,94963.94
2022-09-14T17:26:36.423Z,94960.09
2022-09-14T17:29:05.439Z,94953.03
2022-09-14T17:31:36.801Z,94954.47
2022-09-14T17:34:06.450Z,94969.41
2022-09-14T17:36:34.209Z,94918.66
2022-09-14T17:39:06.791Z,94961.16
2022-09-14T17:41:38.526Z,94950.25
2022-09-14T17:44:07.608Z,94958.66
2022-09-14T17:46:44.432Z,94963.16
2022-09-14T17:49:16.197Z,94964.28
2022-09-14T17:51:45.124Z,94977.25
2022-09-14T17:54:13.345Z,94976.06
2022-09-14T17:56:41.187Z,94978.50
2022-09-14T17:59:12.093Z,94979.13
2022-09-14T18:01:41.749Z,94972.88
2022-09-14T18:04:11.998Z,94974.38
2022-09-14T18:06:42.206Z,94968.97
2022-09-14T18:09:13.241Z,94973.00
2022-09-14T18:11:41.342Z,94967.13
2022-09-14T18:14:12.589Z,94950.03
2022-09-14T18:16:42.246Z,94954.19
2022-09-14T18:19:10.405Z,94953.75
2022-09-14T18:21:38.130Z,94951.81
2022-09-14T18:24:06.590Z,94960.06
2022-09-14T18:26:34.362Z,94967.75
2022-09-14T18:29:03.587Z,94960.31
2022-09-14T23:01:42.230Z,95043.69
2022-09-14T23:04:12.385Z,95028.16
2022-09-14T23:06:42.200Z,95055.59
2022-09-14T23:09:12.764Z,95049.75
2022-09-14T23:11:42.141Z,95049.94
2022-09-14T23:14:09.858Z,95013.50
2022-09-14T23:16:39.084Z,95037.66
2022-09-14T23:19:07.787Z,95035.84
2022-09-14T23:21:35.904Z,95030.84
2022-09-14T23:24:10.995Z,95034.53
2022-09-14T23:26:39.196Z,95051.78
2022-09-14T23:29:09.578Z,95049.03
2022-09-14T23:31:37.381Z,94990.03
2022-09-14T23:34:07.209Z,95032.59
2022-09-14T23:36:35.411Z,95045.13
2022-09-14T23:39:03.291Z,94991.50
2022-09-14T23:41:31.403Z,94966.66
2022-09-14T23:43:59.108Z,95012.22
2022-09-14T23:46:27.088Z,94988.59
2022-09-14T23:48:54.930Z,95036.53
2022-09-14T23:51:24.533Z,95042.31
2022-09-14T23:53:52.311Z,95025.09
2022-09-14T23:56:20.055Z,95027.59
2022-09-14T23:58:47.870Z,95024.31
